Time;durP1;ratioP1;P1;durP2;ratioP2;P2;SDS_P1;SDS_P2;PMS_P1;PMS_P2;Temp;Humidity;BMP_temperature;BMP_pressure;BME280_temperature;BME280_humidity;BME280_pressure;Samples;Min_cycle;Max_cycle;Signal;HPM_P1;HPM_P2
2022/12/27 00:01:42;;;;;;;3.90;2.20;;;;;;;;;;5118092;28;20477;-67
2022/12/27 00:04:10;;;;;;;2.10;1.90;;;;;;;;;;5117431;28;20251;-66
2022/12/27 00:06:38;;;;;;;2.37;1.70;;;;;;;;;;5118102;28;20219;-66
2022/12/27 00:09:06;;;;;;;5.53;1.93;;;;;;;;;;5117836;28;20213;-66
2022/12/27 00:11:34;;;;;;;2.50;1.60;;;;;;;;;;5117999;28;20216;-66
2022/12/27 00:14:05;;;;;;;3.60;2.13;;;;;;;;;;5120515;28;20656;-66
2022/12/27 00:16:33;;;;;;;2.27;1.70;;;;;;;;;;5121885;28;20204;-66
2022/12/27 00:19:01;;;;;;;2.57;1.80;;;;;;;;;;5121136;28;20246;-66
2022/12/27 00:21:30;;;;;;;2.63;1.93;;;;;;;;;;5121770;28;20201;-66
2022/12/27 00:23:59;;;;;;;6.47;2.87;;;;;;;;;;5121734;28;20225;-66
2022/12/27 00:26:28;;;;;;;5.50;3.33;;;;;;;;;;5121410;28;20232;-66
2022/12/27 00:28:56;;;;;;;4.37;2.87;;;;;;;;;;5121464;28;20245;-66
2022/12/27 00:31:26;;;;;;;3.70;2.67;;;;;;;;;;5121522;28;20211;-66
2022/12/27 00:33:56;;;;;;;3.97;2.90;;;;;;;;;;5121247;28;20273;-66
2022/12/27 00:36:24;;;;;;;4.13;3.13;;;;;;;;;;5121444;28;20204;-66
2022/12/27 00:38:53;;;;;;;4.97;3.23;;;;;;;;;;5121129;27;20653;-66
2022/12/27 00:41:21;;;;;;;3.50;2.77;;;;;;;;;;5121187;28;20314;-66
2022/12/27 00:43:49;;;;;;;4.63;2.77;;;;;;;;;;5116372;28;20734;-65
2022/12/27 00:46:17;;;;;;;4.73;3.20;;;;;;;;;;5121328;28;20212;-65
2022/12/27 00:48:47;;;;;;;3.30;2.80;;;;;;;;;;5120800;28;20299;-65
2022/12/27 00:51:16;;;;;;;4.43;2.17;;;;;;;;;;5121133;28;20287;-65
2022/12/27 00:53:44;;;;;;;3.00;2.73;;;;;;;;;;5121125;27;20260;-65
2022/12/27 00:56:14;;;;;;;2.50;2.30;;;;;;;;;;5121158;28;20287;-65
2022/12/27 00:58:42;;;;;;;2.73;2.47;;;;;;;;;;5120753;27;20719;-65
2022/12/27 01:01:11;;;;;;;6.40;2.70;;;;;;;;;;5121021;28;20239;-65
2022/12/27 01:03:40;;;;;;;4.07;2.70;;;;;;;;;;5120614;28;20282;-65
2022/12/27 01:06:10;;;;;;;3.03;2.70;;;;;;;;;;5120556;28;20682;-65
2022/12/27 01:08:38;;;;;;;3.30;3.00;;;;;;;;;;5120882;28;20201;-65
2022/12/27 01:11:07;;;;;;;6.40;2.73;;;;;;;;;;5120786;28;20208;-65
2022/12/27 01:13:35;;;;;;;5.17;3.47;;;;;;;;;;5120500;28;20228;-65
2022/12/27 01:16:08;;;;;;;4.37;3.30;;;;;;;;;;5120617;28;20205;-65
2022/12/27 01:18:36;;;;;;;3.43;3.13;;;;;;;;;;5119956;28;20232;-65
2022/12/27 01:21:05;;;;;;;4.30;3.00;;;;;;;;;;5120471;28;20299;-65
2022/12/27 01:23:35;;;;;;;3.70;2.77;;;;;;;;;;5119998;28;20256;-65
2022/12/27 01:26:04;;;;;;;2.77;2.57;;;;;;;;;;5120608;28;20212;-65
2022/12/27 01:28:31;;;;;;;5.20;2.63;;;;;;;;;;5120567;27;20211;-65
2022/12/27 01:31:04;;;;;;;6.30;3.30;;;;;;;;;;5120440;28;20201;-65
2022/12/27 01:33:32;;;;;;;4.40;2.57;;;;;;;;;;5120111;28;20229;-65
2022/12/27 01:36:07;;;;;;;4.40;2.80;;;;;;;;;;5120277;28;20239;-65
2022/12/27 01:38:37;;;;;;;3.43;2.67;;;;;;;;;;5119731;28;20315;-65
2022/12/27 01:42:50;;;;;;;3.43;3.03;;;;;;;;;;5105226;28;20257;-65
2022/12/27 01:43:52;;;;;;;4.23;3.10;;;;;;;;;;5114808;28;20278;-65
2022/12/27 01:46:20;;;;;;;3.37;2.83;;;;;;;;;;5119529;28;20296;-65
2022/12/27 01:48:48;;;;;;;5.37;2.83;;;;;;;;;;5119062;28;20566;-65
2022/12/27 01:51:16;;;;;;;4.40;2.97;;;;;;;;;;5119693;28;20208;-65
2022/12/27 01:53:49;;;;;;;2.90;2.60;;;;;;;;;;5119582;28;20221;-65
2022/12/27 01:56:19;;;;;;;4.83;2.90;;;;;;;;;;5120019;28;20204;-65
2022/12/27 01:58:48;;;;;;;5.47;2.90;;;;;;;;;;5119755;28;20284;-65
2022/12/27 02:01:19;;;;;;;3.70;2.87;;;;;;;;;;5119431;28;20679;-65
2022/12/27 02:03:48;;;;;;;4.47;3.10;;;;;;;;;;5119502;27;20221;-65
2022/12/27 02:06:17;;;;;;;6.47;3.13;;;;;;;;;;5119562;28;20240;-65
2022/12/27 02:08:49;;;;;;;3.63;3.10;;;;;;;;;;5119347;28;20196;-64
2022/12/27 02:11:49;;;;;;;4.53;3.40;;;;;;;;;;5117475;28;20568;-65
2022/12/27 02:14:08;;;;;;;4.17;3.30;;;;;;;;;;5117386;28;20631;-65
2022/12/27 02:16:36;;;;;;;7.73;3.10;;;;;;;;;;5117296;28;20279;-65
2022/12/27 02:19:06;;;;;;;7.17;3.97;;;;;;;;;;5116786;28;20233;-65
2022/12/27 02:21:52;;;;;;;3.90;3.50;;;;;;;;;;5104178;28;20247;-65
2022/12/27 02:24:31;;;;;;;5.87;3.73;;;;;;;;;;5117650;28;20268;-65
2022/12/27 02:27:02;;;;;;;3.40;3.10;;;;;;;;;;5119132;28;20287;-65
2022/12/27 02:29:47;;;;;;;4.50;3.70;;;;;;;;;;5119392;28;20211;-65
2022/12/27 02:32:19;;;;;;;5.80;3.50;;;;;;;;;;5119177;28;20236;-65
2022/12/27 02:34:52;;;;;;;6.03;3.87;;;;;;;;;;5118742;28;20244;-65
2022/12/27 02:37:20;;;;;;;4.07;3.03;;;;;;;;;;5118763;28;20204;-65
2022/12/27 02:39:49;;;;;;;3.80;2.97;;;;;;;;;;5119025;28;20264;-65
2022/12/27 02:53:36;;;;;;;5.00;3.00;;;;;;;;;;5118639;28;20700;-65
2022/12/27 02:59:09;;;;;;;4.97;3.00;;;;;;;;;;5118407;28;20630;-65
2022/12/27 03:04:40;;;;;;;4.50;3.00;;;;;;;;;;5118448;28;20232;-65
2022/12/27 03:07:15;;;;;;;3.40;3.00;;;;;;;;;;5118473;27;20655;-65
2022/12/27 03:18:25;;;;;;;5.30;3.40;;;;;;;;;;5117755;28;20782;-65
2022/12/27 03:26:27;;;;;;;4.33;3.53;;;;;;;;;;5118240;28;20736;-65
2022/12/27 03:34:44;;;;;;;6.47;4.47;;;;;;;;;;5113506;28;20205;-66
2022/12/27 03:40:05;;;;;;;7.73;4.80;;;;;;;;;;5118014;28;20632;-66
2022/12/27 03:46:32;;;;;;;8.87;4.87;;;;;;;;;;5118164;28;20236;-66
2022/12/27 03:48:13;;;;;;;4.90;3.97;;;;;;;;;;5121004;28;20201;-66
2022/12/27 03:50:45;;;;;;;5.67;4.50;;;;;;;;;;5122196;28;20215;-66
2022/12/27 03:53:15;;;;;;;5.57;4.30;;;;;;;;;;5122306;28;20260;-66
2022/12/27 03:55:43;;;;;;;5.57;3.57;;;;;;;;;;5122046;28;20204;-66
2022/12/27 03:58:11;;;;;;;6.70;3.80;;;;;;;;;;5122306;28;20236;-66
2022/12/27 04:00:40;;;;;;;5.80;3.87;;;;;;;;;;5121695;28;20232;-66
2022/12/27 04:03:08;;;;;;;4.90;3.77;;;;;;;;;;5121590;28;20695;-66
2022/12/27 04:05:36;;;;;;;9.13;4.60;;;;;;;;;;5122086;28;20204;-66
2022/12/27 04:35:42;;;;;;;5.20;3.53;;;;;;;;;;5121206;28;20205;-65
2022/12/27 04:38:10;;;;;;;4.80;3.67;;;;;;;;;;5121521;28;20208;-66
2022/12/27 04:57:20;;;;;;;4.43;3.83;;;;;;;;;;5121065;27;20215;-66
2022/12/27 05:02:33;;;;;;;6.57;4.57;;;;;;;;;;5117315;28;20667;-66
2022/12/27 05:05:02;;;;;;;5.37;4.10;;;;;;;;;;5120060;28;20656;-66
2022/12/27 05:15:50;;;;;;;5.83;4.43;;;;;;;;;;5120676;28;20197;-66
2022/12/27 05:18:18;;;;;;;6.13;3.87;;;;;;;;;;5120005;28;20232;-65
2022/12/27 05:20:46;;;;;;;4.40;3.73;;;;;;;;;;5120352;28;20232;-66
2022/12/27 05:26:00;;;;;;;3.83;3.30;;;;;;;;;;5120402;28;20201;-66
2022/12/27 05:28:30;;;;;;;4.27;3.77;;;;;;;;;;5120126;28;20208;-65
2022/12/27 05:31:01;;;;;;;3.97;3.50;;;;;;;;;;5120261;28;20204;-65
2022/12/27 05:33:31;;;;;;;6.30;3.97;;;;;;;;;;5119800;28;20250;-65
2022/12/27 05:35:59;;;;;;;5.27;3.87;;;;;;;;;;5120136;28;20217;-65
2022/12/27 05:38:27;;;;;;;5.93;3.53;;;;;;;;;;5120110;28;20679;-65
2022/12/27 05:40:59;;;;;;;4.00;3.60;;;;;;;;;;5120133;27;20223;-65
2022/12/27 05:43:27;;;;;;;6.13;3.93;;;;;;;;;;5120148;28;20227;-65
2022/12/27 05:46:02;;;;;;;7.90;5.37;;;;;;;;;;5113522;28;20236;-64
2022/12/27 05:48:30;;;;;;;7.20;5.97;;;;;;;;;;5110703;28;20233;-64
2022/12/27 05:50:58;;;;;;;8.37;5.63;;;;;;;;;;5118257;27;20288;-64
2022/12/27 05:53:26;;;;;;;6.93;5.57;;;;;;;;;;5119558;28;20267;-65
2022/12/27 05:55:55;;;;;;;5.90;4.67;;;;;;;;;;5119384;28;20232;-64
2022/12/27 05:58:23;;;;;;;5.90;4.47;;;;;;;;;;5119609;28;20204;-64
2022/12/27 06:00:51;;;;;;;5.57;4.60;;;;;;;;;;5119725;28;20238;-65
2022/12/27 06:03:21;;;;;;;6.03;4.17;;;;;;;;;;5119119;28;20308;-65
2022/12/27 06:05:49;;;;;;;7.30;4.03;;;;;;;;;;5119121;28;20663;-64
2022/12/27 06:08:17;;;;;;;6.70;3.43;;;;;;;;;;5119204;28;20201;-65
2022/12/27 06:10:45;;;;;;;6.93;4.40;;;;;;;;;;5118305;27;20205;-64
2022/12/27 06:13:13;;;;;;;7.03;4.53;;;;;;;;;;5119207;28;20305;-65
2022/12/27 06:15:41;;;;;;;6.87;3.73;;;;;;;;;;5118985;28;20850;-64
2022/12/27 06:18:09;;;;;;;4.80;3.33;;;;;;;;;;5116974;28;20243;-65
2022/12/27 06:20:38;;;;;;;7.73;4.57;;;;;;;;;;5117142;28;20674;-65
2022/12/27 06:23:06;;;;;;;5.20;3.57;;;;;;;;;;5117502;28;20229;-65
2022/12/27 06:25:37;;;;;;;3.43;2.97;;;;;;;;;;5117288;28;20706;-64
2022/12/27 06:28:05;;;;;;;3.77;3.00;;;;;;;;;;5117193;28;20582;-65
2022/12/27 06:30:33;;;;;;;5.17;3.27;;;;;;;;;;5117340;28;20232;-64
2022/12/27 06:33:03;;;;;;;4.50;3.17;;;;;;;;;;5118547;28;20220;-65
2022/12/27 06:35:31;;;;;;;3.40;2.20;;;;;;;;;;5118895;28;20544;-65
2022/12/27 06:38:00;;;;;;;3.33;2.40;;;;;;;;;;5119230;28;20238;-65
2022/12/27 06:40:28;;;;;;;3.40;2.40;;;;;;;;;;5118794;28;20217;-65
2022/12/27 06:42:56;;;;;;;4.20;3.13;;;;;;;;;;5119057;27;20248;-64
2022/12/27 06:45:24;;;;;;;5.30;2.03;;;;;;;;;;5118857;28;20671;-65
2022/12/27 06:47:52;;;;;;;2.50;2.10;;;;;;;;;;5118563;28;20287;-64
2022/12/27 06:50:23;;;;;;;3.43;1.90;;;;;;;;;;5118870;28;20232;-64
2022/12/27 06:52:51;;;;;;;3.17;1.50;;;;;;;;;;5118834;28;20225;-65
2022/12/27 06:55:21;;;;;;;4.27;1.80;;;;;;;;;;5118583;28;20694;-65
2022/12/27 06:57:50;;;;;;;2.93;2.20;;;;;;;;;;5118687;28;20211;-65
2022/12/27 07:00:19;;;;;;;4.70;1.47;;;;;;;;;;5118430;28;20228;-65
2022/12/27 07:02:47;;;;;;;2.07;1.87;;;;;;;;;;5118147;28;20228;-64
2022/12/27 07:05:16;;;;;;;3.17;1.60;;;;;;;;;;5118435;28;20264;-65
2022/12/27 07:07:44;;;;;;;2.33;1.50;;;;;;;;;;5118474;28;20201;-65
2022/12/27 07:10:12;;;;;;;2.23;1.60;;;;;;;;;;5118362;28;20203;-65
2022/12/27 07:12:41;;;;;;;4.30;1.70;;;;;;;;;;5118507;28;20220;-65
2022/12/27 07:15:09;;;;;;;2.00;1.20;;;;;;;;;;5118262;28;20215;-65
2022/12/27 07:17:38;;;;;;;2.80;1.80;;;;;;;;;;5118358;28;20204;-65
2022/12/27 07:20:07;;;;;;;2.33;1.40;;;;;;;;;;5118051;28;20216;-65
2022/12/27 07:22:35;;;;;;;4.40;1.77;;;;;;;;;;5117812;28;20711;-65
2022/12/27 07:25:03;;;;;;;3.03;1.50;;;;;;;;;;5118503;28;20208;-65
2022/12/27 07:27:33;;;;;;;4.13;1.70;;;;;;;;;;5118108;28;20660;-64
2022/12/27 07:30:02;;;;;;;3.43;1.80;;;;;;;;;;5118161;28;20204;-65
2022/12/27 07:32:30;;;;;;;4.60;1.90;;;;;;;;;;5118064;28;20697;-65
2022/12/27 07:34:58;;;;;;;2.30;2.00;;;;;;;;;;5118054;28;20212;-64
2022/12/27 07:37:26;;;;;;;2.33;2.03;;;;;;;;;;5118371;28;20240;-65
2022/12/27 07:39:54;;;;;;;7.80;5.63;;;;;;;;;;5118001;28;20772;-65
2022/12/27 07:42:22;;;;;;;4.50;3.70;;;;;;;;;;5117823;28;20409;-64
2022/12/27 07:44:50;;;;;;;3.20;2.30;;;;;;;;;;5118324;28;20288;-64
2022/12/27 07:47:20;;;;;;;4.43;2.03;;;;;;;;;;5118168;28;20269;-65
2022/12/27 07:49:50;;;;;;;5.03;2.90;;;;;;;;;;5117666;28;20205;-64
2022/12/27 07:52:18;;;;;;;3.63;1.83;;;;;;;;;;5118015;28;20193;-64
2022/12/27 07:54:46;;;;;;;2.67;2.10;;;;;;;;;;5117912;28;20212;-64
2022/12/27 07:57:14;;;;;;;6.63;2.80;;;;;;;;;;5117828;28;20727;-64
2022/12/27 07:59:42;;;;;;;2.57;2.37;;;;;;;;;;5117800;28;20239;-64
2022/12/27 08:02:10;;;;;;;7.10;3.53;;;;;;;;;;5117617;28;20278;-65
2022/12/27 08:04:40;;;;;;;3.50;3.20;;;;;;;;;;5117790;28;20232;-65
2022/12/27 08:07:12;;;;;;;6.77;3.80;;;;;;;;;;5117808;28;20551;-64
2022/12/27 08:09:41;;;;;;;6.93;4.13;;;;;;;;;;5117812;28;20227;-65
2022/12/27 08:12:09;;;;;;;5.97;4.17;;;;;;;;;;5117896;28;20204;-64
2022/12/27 08:14:37;;;;;;;5.03;4.13;;;;;;;;;;5117711;28;20326;-65
2022/12/27 08:17:07;;;;;;;5.07;4.40;;;;;;;;;;5118013;28;20228;-64
2022/12/27 08:19:35;;;;;;;5.17;4.67;;;;;;;;;;5117198;28;20783;-65
2022/12/27 08:22:05;;;;;;;4.93;3.73;;;;;;;;;;5117647;28;20233;-64
2022/12/27 08:24:33;;;;;;;7.37;4.20;;;;;;;;;;5117583;28;20227;-64
2022/12/27 08:27:01;;;;;;;6.17;3.73;;;;;;;;;;5117699;28;20694;-65
2022/12/27 08:29:29;;;;;;;4.27;3.87;;;;;;;;;;5117863;28;20261;-64
2022/12/27 08:31:57;;;;;;;4.97;3.40;;;;;;;;;;5117935;28;20205;-65
2022/12/27 08:34:25;;;;;;;6.63;4.03;;;;;;;;;;5119132;28;20235;-65
2022/12/27 08:36:56;;;;;;;8.50;3.53;;;;;;;;;;5121051;28;20204;-65
2022/12/27 08:39:28;;;;;;;5.03;3.40;;;;;;;;;;5121526;28;20280;-65
2022/12/27 08:41:56;;;;;;;7.13;3.47;;;;;;;;;;5121367;28;20219;-65
2022/12/27 08:44:26;;;;;;;5.17;3.37;;;;;;;;;;5121064;28;20743;-65
2022/12/27 08:46:54;;;;;;;5.37;3.80;;;;;;;;;;5121376;28;20209;-65
2022/12/27 08:49:22;;;;;;;4.77;3.77;;;;;;;;;;5120821;28;20655;-65
2022/12/27 08:51:50;;;;;;;5.37;3.70;;;;;;;;;;5120991;28;20636;-65
2022/12/27 08:54:18;;;;;;;6.27;3.73;;;;;;;;;;5121233;28;20224;-65
2022/12/27 08:56:47;;;;;;;5.17;3.93;;;;;;;;;;5121164;28;20212;-65
2022/12/27 08:59:16;;;;;;;3.33;2.87;;;;;;;;;;5120876;28;20660;-65
2022/12/27 09:01:44;;;;;;;4.23;2.87;;;;;;;;;;5120642;28;20591;-65
2022/12/27 09:04:12;;;;;;;5.60;3.23;;;;;;;;;;5120576;28;20273;-65
2022/12/27 09:06:41;;;;;;;3.67;3.30;;;;;;;;;;5120979;28;20205;-65
2022/12/27 09:09:09;;;;;;;5.27;3.37;;;;;;;;;;5120948;28;20243;-64
2022/12/27 09:11:37;;;;;;;5.13;3.20;;;;;;;;;;5120316;28;20544;-64
2022/12/27 09:14:06;;;;;;;5.93;3.07;;;;;;;;;;5120405;28;20229;-65
2022/12/27 09:16:34;;;;;;;4.97;3.40;;;;;;;;;;5120311;28;20736;-64
2022/12/27 09:19:03;;;;;;;3.90;3.30;;;;;;;;;;5119882;27;20241;-64
2022/12/27 09:21:32;;;;;;;4.47;3.13;;;;;;;;;;5120253;28;20587;-65
2022/12/27 09:24:00;;;;;;;6.20;3.20;;;;;;;;;;5120635;28;20242;-64
2022/12/27 09:26:29;;;;;;;4.67;3.00;;;;;;;;;;5120438;27;20254;-64
2022/12/27 09:28:57;;;;;;;4.93;3.80;;;;;;;;;;5120310;28;20205;-64
2022/12/27 09:31:27;;;;;;;4.73;3.23;;;;;;;;;;5120210;28;20239;-65
2022/12/27 09:33:56;;;;;;;5.57;4.27;;;;;;;;;;5119876;28;20225;-65
2022/12/27 09:36:25;;;;;;;3.27;2.70;;;;;;;;;;5120060;27;20288;-65
2022/12/27 09:38:53;;;;;;;4.00;1.87;;;;;;;;;;5120077;28;20216;-65
2022/12/27 09:41:22;;;;;;;6.23;2.40;;;;;;;;;;5119924;28;20687;-64
2022/12/27 09:44:13;;;;;;;4.20;2.53;;;;;;;;;;5117625;28;20594;-65
2022/12/27 09:46:43;;;;;;;5.47;2.40;;;;;;;;;;5120205;28;20205;-65
2022/12/27 09:49:14;;;;;;;7.27;3.60;;;;;;;;;;5119418;28;20671;-65
2022/12/27 09:51:46;;;;;;;4.57;3.00;;;;;;;;;;5120159;28;20200;-64
2022/12/27 09:54:14;;;;;;;4.77;3.47;;;;;;;;;;5106280;28;20225;-64
2022/12/27 09:56:43;;;;;;;4.77;3.77;;;;;;;;;;5119715;28;20234;-65
2022/12/27 09:59:33;;;;;;;6.20;3.53;;;;;;;;;;5119467;28;20818;-65
2022/12/27 10:02:02;;;;;;;4.80;3.47;;;;;;;;;;5119500;28;20702;-64
2022/12/27 10:04:34;;;;;;;5.90;3.63;;;;;;;;;;5119424;28;20224;-64
2022/12/27 10:07:27;;;;;;;5.97;3.93;;;;;;;;;;5119527;27;20200;-64
2022/12/27 10:09:58;;;;;;;5.20;3.20;;;;;;;;;;5119496;28;20675;-65
2022/12/27 10:12:33;;;;;;;3.70;3.17;;;;;;;;;;5119449;28;20213;-65
2022/12/27 10:15:08;;;;;;;5.90;3.53;;;;;;;;;;5119671;28;20212;-65
2022/12/27 10:17:45;;;;;;;5.50;3.33;;;;;;;;;;5119471;28;20236;-64
2022/12/27 10:20:25;;;;;;;4.83;2.73;;;;;;;;;;5119558;28;20257;-65
2022/12/27 10:22:57;;;;;;;3.87;2.40;;;;;;;;;;5119120;27;20230;-64
2022/12/27 10:25:34;;;;;;;2.80;2.60;;;;;;;;;;5119514;28;20205;-65
2022/12/27 10:28:10;;;;;;;3.40;2.20;;;;;;;;;;5119331;28;20212;-64
2022/12/27 10:30:39;;;;;;;3.53;2.37;;;;;;;;;;5119458;28;20211;-65
2022/12/27 10:33:12;;;;;;;4.30;2.80;;;;;;;;;;5119108;28;20224;-65
2022/12/27 10:35:39;;;;;;;6.70;3.00;;;;;;;;;;5119067;28;20205;-65
2022/12/27 10:38:10;;;;;;;6.07;3.20;;;;;;;;;;5119230;28;20236;-65
2022/12/27 10:40:40;;;;;;;4.97;2.97;;;;;;;;;;5118971;28;20735;-65
2022/12/27 10:43:16;;;;;;;3.70;2.83;;;;;;;;;;5119066;28;20228;-65
2022/12/27 10:45:47;;;;;;;6.17;2.70;;;;;;;;;;5119364;28;20288;-64
2022/12/27 10:48:18;;;;;;;5.50;3.00;;;;;;;;;;5119180;28;20216;-65
2022/12/27 10:50:48;;;;;;;4.60;3.30;;;;;;;;;;5118992;28;20257;-65
2022/12/27 10:53:33;;;;;;;5.60;2.80;;;;;;;;;;5119182;28;20223;-65
2022/12/27 10:56:09;;;;;;;6.23;2.80;;;;;;;;;;5118584;28;20236;-65
2022/12/27 10:58:39;;;;;;;4.63;2.60;;;;;;;;;;5118573;28;20233;-65
2022/12/27 11:01:14;;;;;;;4.37;3.20;;;;;;;;;;5118827;28;20236;-65
2022/12/27 11:03:44;;;;;;;3.07;2.20;;;;;;;;;;5118304;28;20267;-65
2022/12/27 11:06:22;;;;;;;3.50;2.50;;;;;;;;;;5118751;28;20303;-65
2022/12/27 11:08:51;;;;;;;3.03;2.73;;;;;;;;;;5118813;28;20204;-65
2022/12/27 11:11:20;;;;;;;4.23;3.00;;;;;;;;;;5118818;28;20213;-65
2022/12/27 11:13:48;;;;;;;7.87;2.80;;;;;;;;;;5118485;27;20770;-65
2022/12/27 11:16:24;;;;;;;4.50;2.50;;;;;;;;;;5118395;28;20622;-65
2022/12/27 11:18:55;;;;;;;4.73;2.57;;;;;;;;;;5118112;28;20703;-65
2022/12/27 11:21:24;;;;;;;7.70;2.50;;;;;;;;;;5118621;28;20211;-65
2022/12/27 11:23:56;;;;;;;4.87;2.17;;;;;;;;;;5118410;28;20267;-65
2022/12/27 11:26:26;;;;;;;4.33;2.40;;;;;;;;;;5118764;28;20239;-65
2022/12/27 11:28:55;;;;;;;13.47;4.10;;;;;;;;;;5118314;28;20205;-65
2022/12/27 11:31:31;;;;;;;5.27;3.17;;;;;;;;;;5118675;28;20268;-65
2022/12/27 11:34:03;;;;;;;3.93;2.10;;;;;;;;;;5118378;28;20231;-65
2022/12/27 11:36:33;;;;;;;2.43;1.90;;;;;;;;;;5119031;28;20209;-65
2022/12/27 11:39:01;;;;;;;5.97;2.33;;;;;;;;;;5118914;28;20268;-65
2022/12/27 11:41:33;;;;;;;3.80;2.03;;;;;;;;;;5118491;28;20208;-65
2022/12/27 11:44:03;;;;;;;3.93;1.80;;;;;;;;;;5118217;28;20229;-65
2022/12/27 11:46:38;;;;;;;2.40;2.03;;;;;;;;;;5118398;28;20204;-65
2022/12/27 11:49:12;;;;;;;3.53;2.00;;;;;;;;;;5118061;28;20632;-65
2022/12/27 11:51:46;;;;;;;5.30;1.80;;;;;;;;;;5118373;28;20207;-65
2022/12/27 11:54:21;;;;;;;1.67;1.50;;;;;;;;;;5118542;28;20217;-65
2022/12/27 11:56:52;;;;;;;6.67;1.97;;;;;;;;;;5117924;28;20204;-64
2022/12/27 11:59:26;;;;;;;5.47;1.90;;;;;;;;;;5118644;28;20239;-65
2022/12/27 12:02:02;;;;;;;2.83;1.70;;;;;;;;;;5115092;28;20231;-65
2022/12/27 12:04:47;;;;;;;4.77;1.63;;;;;;;;;;5117722;28;20232;-65
2022/12/27 12:07:21;;;;;;;5.97;2.00;;;;;;;;;;5118650;28;20212;-65
2022/12/27 12:10:01;;;;;;;3.03;1.80;;;;;;;;;;5120901;28;20208;-65
2022/12/27 12:12:50;;;;;;;4.60;1.60;;;;;;;;;;5121952;28;20697;-65
2022/12/27 12:15:28;;;;;;;2.93;1.60;;;;;;;;;;5121970;28;20555;-65
2022/12/27 12:18:04;;;;;;;3.50;1.50;;;;;;;;;;5121451;28;20204;-65
2022/12/27 12:20:46;;;;;;;3.20;1.73;;;;;;;;;;5121618;28;20611;-65
2022/12/27 12:23:26;;;;;;;1.90;1.70;;;;;;;;;;5120961;27;20228;-65
2022/12/27 12:26:06;;;;;;;3.90;1.30;;;;;;;;;;5121731;28;20232;-65
2022/12/27 12:28:43;;;;;;;1.77;1.67;;;;;;;;;;5121779;28;20292;-65
2022/12/27 12:31:39;;;;;;;1.83;1.30;;;;;;;;;;5121713;28;20205;-65
2022/12/27 12:34:14;;;;;;;3.50;1.90;;;;;;;;;;5121215;28;20228;-65
2022/12/27 12:36:57;;;;;;;3.33;1.50;;;;;;;;;;5121647;27;20205;-65
2022/12/27 12:39:34;;;;;;;3.20;1.67;;;;;;;;;;5116485;28;20211;-65
2022/12/27 12:42:13;;;;;;;5.47;1.63;;;;;;;;;;5121579;28;20207;-65
2022/12/27 12:44:56;;;;;;;2.77;1.60;;;;;;;;;;5121398;28;20230;-65
2022/12/27 12:47:34;;;;;;;4.70;2.37;;;;;;;;;;5120375;28;20204;-65
2022/12/27 12:50:08;;;;;;;3.23;1.67;;;;;;;;;;5121117;28;20205;-65
2022/12/27 12:52:45;;;;;;;3.30;1.50;;;;;;;;;;5120977;28;20298;-65
2022/12/27 12:55:23;;;;;;;5.60;1.77;;;;;;;;;;5121288;28;20201;-66
2022/12/27 12:57:59;;;;;;;3.37;1.33;;;;;;;;;;5121002;28;20232;-65
2022/12/27 13:00:32;;;;;;;6.10;1.83;;;;;;;;;;5120891;28;20204;-66
2022/12/27 13:03:35;;;;;;;3.53;1.17;;;;;;;;;;5120511;28;20232;-65
2022/12/27 13:06:08;;;;;;;1.70;1.07;;;;;;;;;;5120745;28;20213;-65
2022/12/27 13:08:39;;;;;;;1.60;1.23;;;;;;;;;;5121020;28;20231;-65
2022/12/27 13:11:23;;;;;;;2.07;1.23;;;;;;;;;;5121081;28;20208;-65
2022/12/27 13:14:01;;;;;;;2.57;1.13;;;;;;;;;;5120932;28;20227;-65
2022/12/27 13:16:36;;;;;;;3.00;1.30;;;;;;;;;;5120771;28;20239;-65
2022/12/27 13:19:12;;;;;;;3.77;1.13;;;;;;;;;;5119838;28;20232;-65
2022/12/27 13:21:47;;;;;;;2.23;1.20;;;;;;;;;;5120378;28;20212;-65
2022/12/27 13:24:22;;;;;;;2.77;0.90;;;;;;;;;;5120537;28;20270;-65
2022/12/27 13:27:00;;;;;;;1.20;1.10;;;;;;;;;;5120791;28;20219;-65
2022/12/27 13:29:40;;;;;;;3.03;1.30;;;;;;;;;;5120490;27;20572;-65
2022/12/27 13:32:12;;;;;;;3.53;0.90;;;;;;;;;;5120582;28;20231;-66
2022/12/27 13:34:44;;;;;;;2.27;1.20;;;;;;;;;;5120166;28;20228;-65
2022/12/27 13:37:20;;;;;;;1.40;0.90;;;;;;;;;;5120513;28;20208;-66
2022/12/27 13:39:58;;;;;;;1.93;1.13;;;;;;;;;;5120423;28;20204;-65
2022/12/27 13:42:43;;;;;;;5.10;1.17;;;;;;;;;;5120174;28;20226;-65
2022/12/27 13:45:20;;;;;;;1.77;1.10;;;;;;;;;;5120248;28;20264;-65
2022/12/27 13:48:06;;;;;;;1.80;1.13;;;;;;;;;;5120023;28;20205;-65
2022/12/27 13:50:47;;;;;;;3.40;1.17;;;;;;;;;;5119662;28;20648;-65
2022/12/27 13:53:33;;;;;;;5.90;1.30;;;;;;;;;;5119889;28;20228;-65
2022/12/27 13:56:04;;;;;;;2.30;1.80;;;;;;;;;;5120148;27;20237;-65
2022/12/27 13:59:08;;;;;;;2.27;0.87;;;;;;;;;;5120246;28;20208;-65
2022/12/27 14:01:46;;;;;;;2.23;1.07;;;;;;;;;;5119850;28;20223;-66
2022/12/27 14:04:38;;;;;;;2.10;1.00;;;;;;;;;;5119260;28;20278;-66
2022/12/27 14:07:12;;;;;;;1.80;0.70;;;;;;;;;;5113932;28;20236;-66
2022/12/27 14:09:49;;;;;;;4.13;1.07;;;;;;;;;;5119477;28;20253;-66
2022/12/27 14:12:37;;;;;;;3.77;1.33;;;;;;;;;;5119401;28;20280;-65
2022/12/27 14:15:08;;;;;;;2.27;1.20;;;;;;;;;;5119549;28;20235;-65
2022/12/27 14:17:41;;;;;;;4.00;2.33;;;;;;;;;;5119266;28;20248;-65
2022/12/27 14:20:26;;;;;;;3.83;1.27;;;;;;;;;;5119187;28;20201;-66
2022/12/27 14:23:11;;;;;;;5.17;1.40;;;;;;;;;;5115541;28;20232;-65
2022/12/27 14:25:56;;;;;;;8.57;1.20;;;;;;;;;;5119441;28;20225;-65
2022/12/27 14:28:41;;;;;;;1.73;1.00;;;;;;;;;;5119459;28;20237;-65
2022/12/27 14:31:29;;;;;;;3.90;1.27;;;;;;;;;;5118604;28;20201;-65
2022/12/27 14:34:30;;;;;;;2.87;1.60;;;;;;;;;;5119085;28;20260;-66
2022/12/27 14:37:06;;;;;;;1.27;1.10;;;;;;;;;;5119084;28;20200;-66
2022/12/27 14:40:01;;;;;;;3.20;1.13;;;;;;;;;;5118882;28;20203;-64
2022/12/27 14:42:43;;;;;;;3.43;1.13;;;;;;;;;;5071341;28;20236;-65
2022/12/27 14:45:30;;;;;;;2.33;1.00;;;;;;;;;;5118772;28;20221;-66
2022/12/27 14:48:15;;;;;;;4.17;0.97;;;;;;;;;;5118555;27;20211;-65
2022/12/27 14:50:58;;;;;;;3.37;1.40;;;;;;;;;;5118459;28;20243;-65
2022/12/27 14:53:40;;;;;;;2.50;0.90;;;;;;;;;;5118854;28;20271;-66
2022/12/27 14:56:16;;;;;;;1.10;1.10;;;;;;;;;;5118966;28;20284;-66
2022/12/27 14:58:52;;;;;;;1.67;1.00;;;;;;;;;;5118843;28;20215;-65
2022/12/27 15:01:25;;;;;;;1.60;1.00;;;;;;;;;;5118874;28;20200;-65
2022/12/27 15:03:58;;;;;;;2.57;1.13;;;;;;;;;;5118244;28;20225;-65
2022/12/27 15:06:40;;;;;;;2.33;1.10;;;;;;;;;;5118405;28;20672;-65
2022/12/27 15:09:11;;;;;;;1.27;1.00;;;;;;;;;;5118535;28;20246;-65
2022/12/27 15:11:46;;;;;;;1.63;0.90;;;;;;;;;;5118759;28;20215;-66
2022/12/27 15:14:21;;;;;;;0.80;0.70;;;;;;;;;;5118712;28;20230;-66
2022/12/27 15:16:54;;;;;;;1.90;1.00;;;;;;;;;;5118642;28;20268;-66
2022/12/27 15:19:28;;;;;;;3.70;1.00;;;;;;;;;;5117744;28;20719;-66
2022/12/27 15:22:02;;;;;;;1.07;0.97;;;;;;;;;;5118420;28;20209;-65
2022/12/27 15:24:40;;;;;;;1.70;1.10;;;;;;;;;;5118172;28;20286;-65
2022/12/27 15:27:13;;;;;;;2.37;1.00;;;;;;;;;;5118310;28;20554;-65
2022/12/27 15:29:54;;;;;;;5.23;1.10;;;;;;;;;;5118236;28;20253;-65
2022/12/27 15:32:25;;;;;;;1.30;1.00;;;;;;;;;;5117874;28;20601;-65
2022/12/27 15:34:58;;;;;;;1.63;1.07;;;;;;;;;;5118084;28;20652;-65
2022/12/27 15:37:56;;;;;;;3.20;1.20;;;;;;;;;;5118052;28;20577;-65
2022/12/27 15:40:38;;;;;;;2.67;1.40;;;;;;;;;;5100506;28;20207;-65
2022/12/27 15:43:11;;;;;;;2.73;1.00;;;;;;;;;;5119669;28;20216;-65
2022/12/27 15:45:44;;;;;;;2.57;1.03;;;;;;;;;;5122286;28;20714;-65
2022/12/27 15:48:28;;;;;;;2.20;1.07;;;;;;;;;;5122111;28;20204;-65
2022/12/27 15:50:59;;;;;;;4.47;1.00;;;;;;;;;;5108694;28;20724;-65
2022/12/27 15:53:44;;;;;;;2.90;1.07;;;;;;;;;;5122348;27;20585;-65
2022/12/27 15:56:20;;;;;;;2.97;1.30;;;;;;;;;;5122399;28;20207;-65
2022/12/27 15:59:03;;;;;;;2.03;1.30;;;;;;;;;;5122152;28;20211;-65
2022/12/27 16:01:33;;;;;;;3.07;1.23;;;;;;;;;;5121729;28;20640;-65
2022/12/27 16:04:21;;;;;;;4.03;2.23;;;;;;;;;;5121946;28;20237;-65
2022/12/27 16:06:50;;;;;;;4.37;2.53;;;;;;;;;;5121718;28;20711;-65
2022/12/27 16:09:21;;;;;;;2.83;2.00;;;;;;;;;;5122118;28;20209;-65
2022/12/27 16:12:02;;;;;;;3.90;1.93;;;;;;;;;;5122087;28;20228;-65
2022/12/27 16:14:31;;;;;;;3.13;1.70;;;;;;;;;;5121694;28;20774;-65
2022/12/27 16:17:07;;;;;;;2.97;2.33;;;;;;;;;;5121776;28;20579;-66
2022/12/27 16:19:49;;;;;;;3.77;2.00;;;;;;;;;;5121174;28;20243;-65
2022/12/27 16:22:24;;;;;;;6.13;1.73;;;;;;;;;;5122086;28;20247;-65
2022/12/27 16:24:52;;;;;;;2.20;1.57;;;;;;;;;;5122050;28;20211;-65
2022/12/27 16:27:27;;;;;;;2.47;1.87;;;;;;;;;;5121781;28;20305;-65
2022/12/27 16:29:55;;;;;;;2.37;1.90;;;;;;;;;;5121792;28;20303;-65
2022/12/27 16:32:24;;;;;;;3.47;2.87;;;;;;;;;;5121687;28;20231;-65
2022/12/27 16:34:54;;;;;;;7.67;5.17;;;;;;;;;;5121728;28;20258;-65
2022/12/27 16:37:25;;;;;;;7.00;4.53;;;;;;;;;;5121686;28;20227;-65
2022/12/27 16:40:03;;;;;;;5.03;3.13;;;;;;;;;;5121385;27;20633;-65
2022/12/27 16:42:55;;;;;;;6.20;3.70;;;;;;;;;;5121070;28;20564;-65
2022/12/27 16:45:28;;;;;;;6.43;3.10;;;;;;;;;;5120905;28;20278;-65
2022/12/27 16:48:05;;;;;;;5.03;2.40;;;;;;;;;;5121189;28;20262;-65
2022/12/27 16:50:39;;;;;;;3.30;2.50;;;;;;;;;;5120869;28;20208;-65
2022/12/27 16:53:12;;;;;;;2.67;1.90;;;;;;;;;;5121157;28;20232;-65
2022/12/27 16:56:06;;;;;;;3.30;2.00;;;;;;;;;;5120054;28;20200;-65
2022/12/27 16:58:37;;;;;;;4.43;2.83;;;;;;;;;;5121094;28;20205;-65